sensor_id;sensor_type;location;lat;lon;timestamp;temperature;humidity
76293;DHT22;67256;51.154;4.164;2023-07-16T00:01:29;21.50;53.50
76293;DHT22;67256;51.154;4.164;2023-07-16T00:03:54;21.50;53.40
76293;DHT22;67256;51.154;4.164;2023-07-16T00:06:20;21.60;53.20
76293;DHT22;67256;51.154;4.164;2023-07-16T00:08:46;21.60;53.60
76293;DHT22;67256;51.154;4.164;2023-07-16T00:11:11;21.70;53.30
76293;DHT22;67256;51.154;4.164;2023-07-16T00:13:37;21.60;53.60
76293;DHT22;67256;51.154;4.164;2023-07-16T00:16:05;21.60;53.40
76293;DHT22;67256;51.154;4.164;2023-07-16T00:18:30;21.60;53.50
76293;DHT22;67256;51.154;4.164;2023-07-16T00:20:56;21.50;53.80
76293;DHT22;67256;51.154;4.164;2023-07-16T00:23:22;21.70;53.60
76293;DHT22;67256;51.154;4.164;2023-07-16T00:25:48;21.60;53.90
76293;DHT22;67256;51.154;4.164;2023-07-16T00:28:13;21.70;53.70
76293;DHT22;67256;51.154;4.164;2023-07-16T00:30:39;21.60;53.90
76293;DHT22;67256;51.154;4.164;2023-07-16T00:33:05;21.50;54.50
76293;DHT22;67256;51.154;4.164;2023-07-16T00:35:32;21.50;54.70
76293;DHT22;67256;51.154;4.164;2023-07-16T00:37:57;21.50;54.40
76293;DHT22;67256;51.154;4.164;2023-07-16T00:40:23;21.30;55.00
76293;DHT22;67256;51.154;4.164;2023-07-16T00:42:48;21.10;55.60
76293;DHT22;67256;51.154;4.164;2023-07-16T00:45:14;21.20;55.80
76293;DHT22;67256;51.154;4.164;2023-07-16T00:47:41;21.30;55.20
76293;DHT22;67256;51.154;4.164;2023-07-16T00:50:09;21.30;55.30
76293;DHT22;67256;51.154;4.164;2023-07-16T00:52:35;21.10;56.20
76293;DHT22;67256;51.154;4.164;2023-07-16T00:55:01;21.10;56.40
76293;DHT22;67256;51.154;4.164;2023-07-16T00:57:27;20.90;56.90
76293;DHT22;67256;51.154;4.164;2023-07-16T00:59:53;20.90;57.00
76293;DHT22;67256;51.154;4.164;2023-07-16T01:02:20;21.10;56.60
76293;DHT22;67256;51.154;4.164;2023-07-16T01:04:46;21.10;56.40
76293;DHT22;67256;51.154;4.164;2023-07-16T01:07:13;21.20;56.20
76293;DHT22;67256;51.154;4.164;2023-07-16T01:09:42;21.10;56.60
76293;DHT22;67256;51.154;4.164;2023-07-16T01:12:09;21.10;56.70
76293;DHT22;67256;51.154;4.164;2023-07-16T01:14:36;21.10;56.50
76293;DHT22;67256;51.154;4.164;2023-07-16T01:17:04;21.00;56.90
76293;DHT22;67256;51.154;4.164;2023-07-16T01:19:30;20.90;57.00
76293;DHT22;67256;51.154;4.164;2023-07-16T01:30:30;20.80;56.70
76293;DHT22;67256;51.154;4.164;2023-07-16T01:32:57;20.70;56.60
76293;DHT22;67256;51.154;4.164;2023-07-16T01:35:23;20.80;56.30
76293;DHT22;67256;51.154;4.164;2023-07-16T01:37:49;20.90;55.90
76293;DHT22;67256;51.154;4.164;2023-07-16T01:40:15;20.90;55.50
76293;DHT22;67256;51.154;4.164;2023-07-16T01:42:41;20.90;54.90
76293;DHT22;67256;51.154;4.164;2023-07-16T01:45:06;20.90;54.80
76293;DHT22;67256;51.154;4.164;2023-07-16T01:50:25;21.00;54.10
76293;DHT22;67256;51.154;4.164;2023-07-16T01:52:51;20.80;54.50
76293;DHT22;67256;51.154;4.164;2023-07-16T01:55:17;20.90;54.00
76293;DHT22;67256;51.154;4.164;2023-07-16T01:57:42;21.00;53.30
76293;DHT22;67256;51.154;4.164;2023-07-16T02:00:08;21.00;53.50
76293;DHT22;67256;51.154;4.164;2023-07-16T02:02:34;20.80;53.50
76293;DHT22;67256;51.154;4.164;2023-07-16T02:05:00;20.70;54.20
76293;DHT22;67256;51.154;4.164;2023-07-16T02:07:25;20.70;54.30
76293;DHT22;67256;51.154;4.164;2023-07-16T02:09:51;20.80;53.70
76293;DHT22;67256;51.154;4.164;2023-07-16T02:12:17;20.80;53.70
76293;DHT22;67256;51.154;4.164;2023-07-16T02:14:42;20.70;53.90
76293;DHT22;67256;51.154;4.164;2023-07-16T02:17:08;20.80;53.90
76293;DHT22;67256;51.154;4.164;2023-07-16T02:19:34;20.80;53.60
76293;DHT22;67256;51.154;4.164;2023-07-16T02:22:00;20.80;53.60
76293;DHT22;67256;51.154;4.164;2023-07-16T02:24:25;20.70;53.20
76293;DHT22;67256;51.154;4.164;2023-07-16T02:26:51;20.60;53.50
76293;DHT22;67256;51.154;4.164;2023-07-16T02:29:17;20.60;53.40
76293;DHT22;67256;51.154;4.164;2023-07-16T02:31:43;20.70;52.70
76293;DHT22;67256;51.154;4.164;2023-07-16T02:34:11;20.70;52.70
76293;DHT22;67256;51.154;4.164;2023-07-16T02:36:37;20.70;52.60
76293;DHT22;67256;51.154;4.164;2023-07-16T02:39:03;20.70;52.00
76293;DHT22;67256;51.154;4.164;2023-07-16T02:41:29;20.60;52.10
76293;DHT22;67256;51.154;4.164;2023-07-16T02:44:04;20.60;52.10
76293;DHT22;67256;51.154;4.164;2023-07-16T02:46:30;20.70;51.70
76293;DHT22;67256;51.154;4.164;2023-07-16T02:48:55;20.70;51.00
76293;DHT22;67256;51.154;4.164;2023-07-16T02:51:21;20.60;51.30
76293;DHT22;67256;51.154;4.164;2023-07-16T02:53:47;20.60;51.50
76293;DHT22;67256;51.154;4.164;2023-07-16T02:56:12;20.50;51.60
76293;DHT22;67256;51.154;4.164;2023-07-16T02:58:38;20.50;51.40
76293;DHT22;67256;51.154;4.164;2023-07-16T03:01:06;20.70;51.30
76293;DHT22;67256;51.154;4.164;2023-07-16T03:03:31;20.70;51.10
76293;DHT22;67256;51.154;4.164;2023-07-16T03:05:57;20.70;51.00
76293;DHT22;67256;51.154;4.164;2023-07-16T03:08:23;20.70;51.30
76293;DHT22;67256;51.154;4.164;2023-07-16T03:10:51;20.60;51.00
76293;DHT22;67256;51.154;4.164;2023-07-16T03:13:18;20.60;51.00
76293;DHT22;67256;51.154;4.164;2023-07-16T03:15:45;20.70;51.00
76293;DHT22;67256;51.154;4.164;2023-07-16T03:18:10;20.70;51.00
76293;DHT22;67256;51.154;4.164;2023-07-16T03:20:36;20.60;51.00
76293;DHT22;67256;51.154;4.164;2023-07-16T03:23:02;20.50;51.40
76293;DHT22;67256;51.154;4.164;2023-07-16T03:25:28;20.40;51.70
76293;DHT22;67256;51.154;4.164;2023-07-16T03:27:53;20.40;51.60
76293;DHT22;67256;51.154;4.164;2023-07-16T03:30:19;20.30;51.90
76293;DHT22;67256;51.154;4.164;2023-07-16T03:32:44;20.40;51.80
76293;DHT22;67256;51.154;4.164;2023-07-16T03:35:10;20.50;51.60
76293;DHT22;67256;51.154;4.164;2023-07-16T03:37:36;20.40;51.60
76293;DHT22;67256;51.154;4.164;2023-07-16T03:40:15;20.40;51.90
76293;DHT22;67256;51.154;4.164;2023-07-16T03:42:41;20.40;51.70
76293;DHT22;67256;51.154;4.164;2023-07-16T03:45:08;20.50;51.70
76293;DHT22;67256;51.154;4.164;2023-07-16T03:47:33;20.20;52.40
76293;DHT22;67256;51.154;4.164;2023-07-16T03:49:59;20.30;52.30
76293;DHT22;67256;51.154;4.164;2023-07-16T03:52:25;20.30;52.30
76293;DHT22;67256;51.154;4.164;2023-07-16T03:54:52;20.40;52.10
76293;DHT22;67256;51.154;4.164;2023-07-16T03:57:17;20.20;52.40
76293;DHT22;67256;51.154;4.164;2023-07-16T03:59:43;20.20;52.60
76293;DHT22;67256;51.154;4.164;2023-07-16T04:02:09;20.20;52.80
76293;DHT22;67256;51.154;4.164;2023-07-16T04:04:34;20.20;52.60
76293;DHT22;67256;51.154;4.164;2023-07-16T04:07:00;20.20;52.60
76293;DHT22;67256;51.154;4.164;2023-07-16T04:09:26;20.20;52.80
76293;DHT22;67256;51.154;4.164;2023-07-16T04:11:51;20.20;52.70
76293;DHT22;67256;51.154;4.164;2023-07-16T04:14:17;20.20;52.70
76293;DHT22;67256;51.154;4.164;2023-07-16T04:16:43;20.30;52.60
76293;DHT22;67256;51.154;4.164;2023-07-16T04:19:09;20.20;53.00
76293;DHT22;67256;51.154;4.164;2023-07-16T04:21:35;20.10;53.20
76293;DHT22;67256;51.154;4.164;2023-07-16T04:24:02;20.20;53.10
76293;DHT22;67256;51.154;4.164;2023-07-16T04:26:28;20.10;53.40
76293;DHT22;67256;51.154;4.164;2023-07-16T04:28:54;20.00;53.80
76293;DHT22;67256;51.154;4.164;2023-07-16T04:31:19;20.00;53.80
76293;DHT22;67256;51.154;4.164;2023-07-16T04:33:46;20.20;53.60
76293;DHT22;67256;51.154;4.164;2023-07-16T04:36:12;20.00;53.90
76293;DHT22;67256;51.154;4.164;2023-07-16T04:38:38;20.10;53.90
76293;DHT22;67256;51.154;4.164;2023-07-16T04:41:03;20.20;53.90
76293;DHT22;67256;51.154;4.164;2023-07-16T04:43:29;20.20;54.10
76293;DHT22;67256;51.154;4.164;2023-07-16T04:45:55;20.40;53.90
76293;DHT22;67256;51.154;4.164;2023-07-16T04:48:20;20.60;53.20
76293;DHT22;67256;51.154;4.164;2023-07-16T04:50:46;20.60;53.30
76293;DHT22;67256;51.154;4.164;2023-07-16T04:53:12;20.70;53.00
76293;DHT22;67256;51.154;4.164;2023-07-16T04:55:38;20.70;53.20
76293;DHT22;67256;51.154;4.164;2023-07-16T04:58:05;20.70;52.90
76293;DHT22;67256;51.154;4.164;2023-07-16T05:00:32;20.70;53.10
76293;DHT22;67256;51.154;4.164;2023-07-16T05:02:58;20.70;53.10
76293;DHT22;67256;51.154;4.164;2023-07-16T05:05:24;20.80;53.20
76293;DHT22;67256;51.154;4.164;2023-07-16T05:07:50;21.00;52.90
76293;DHT22;67256;51.154;4.164;2023-07-16T05:10:15;20.90;53.10
76293;DHT22;67256;51.154;4.164;2023-07-16T05:12:41;20.80;53.20
76293;DHT22;67256;51.154;4.164;2023-07-16T05:15:08;20.90;53.00
76293;DHT22;67256;51.154;4.164;2023-07-16T05:17:33;21.00;52.60
76293;DHT22;67256;51.154;4.164;2023-07-16T05:19:59;20.90;52.90
76293;DHT22;67256;51.154;4.164;2023-07-16T05:22:25;20.80;53.30
76293;DHT22;67256;51.154;4.164;2023-07-16T05:24:51;20.80;53.60
76293;DHT22;67256;51.154;4.164;2023-07-16T05:27:16;20.60;54.00
76293;DHT22;67256;51.154;4.164;2023-07-16T05:29:42;20.50;54.50
76293;DHT22;67256;51.154;4.164;2023-07-16T05:32:08;20.50;54.50
76293;DHT22;67256;51.154;4.164;2023-07-16T05:34:34;20.60;54.70
76293;DHT22;67256;51.154;4.164;2023-07-16T05:36:59;20.70;54.50
76293;DHT22;67256;51.154;4.164;2023-07-16T05:39:25;20.70;54.20
76293;DHT22;67256;51.154;4.164;2023-07-16T05:41:51;20.90;53.70
76293;DHT22;67256;51.154;4.164;2023-07-16T05:44:17;21.10;53.50
76293;DHT22;67256;51.154;4.164;2023-07-16T05:46:43;21.20;53.30
76293;DHT22;67256;51.154;4.164;2023-07-16T05:49:08;21.00;53.70
76293;DHT22;67256;51.154;4.164;2023-07-16T05:51:34;20.90;54.20
76293;DHT22;67256;51.154;4.164;2023-07-16T05:54:00;21.00;54.10
76293;DHT22;67256;51.154;4.164;2023-07-16T05:56:26;21.00;54.30
76293;DHT22;67256;51.154;4.164;2023-07-16T05:58:51;21.10;53.80
76293;DHT22;67256;51.154;4.164;2023-07-16T06:01:17;21.20;53.70
76293;DHT22;67256;51.154;4.164;2023-07-16T06:03:43;21.30;53.50
76293;DHT22;67256;51.154;4.164;2023-07-16T06:06:09;21.30;53.10
76293;DHT22;67256;51.154;4.164;2023-07-16T06:08:35;21.20;53.80
76293;DHT22;67256;51.154;4.164;2023-07-16T06:11:00;21.30;53.60
76293;DHT22;67256;51.154;4.164;2023-07-16T06:13:26;21.20;53.60
76293;DHT22;67256;51.154;4.164;2023-07-16T06:15:52;21.20;53.70
76293;DHT22;67256;51.154;4.164;2023-07-16T06:18:18;21.20;54.40
76293;DHT22;67256;51.154;4.164;2023-07-16T06:20:44;21.30;53.80
76293;DHT22;67256;51.154;4.164;2023-07-16T06:23:10;21.30;53.50
76293;DHT22;67256;51.154;4.164;2023-07-16T06:25:36;21.20;54.20
76293;DHT22;67256;51.154;4.164;2023-07-16T06:28:03;21.40;53.70
76293;DHT22;67256;51.154;4.164;2023-07-16T06:30:29;21.40;53.50
76293;DHT22;67256;51.154;4.164;2023-07-16T06:32:56;21.50;53.20
76293;DHT22;67256;51.154;4.164;2023-07-16T06:35:21;21.50;53.50
76293;DHT22;67256;51.154;4.164;2023-07-16T06:37:47;21.40;53.70
76293;DHT22;67256;51.154;4.164;2023-07-16T06:40:13;21.40;53.70
76293;DHT22;67256;51.154;4.164;2023-07-16T06:42:38;21.50;53.60
76293;DHT22;67256;51.154;4.164;2023-07-16T06:45:04;21.50;53.60
76293;DHT22;67256;51.154;4.164;2023-07-16T06:47:30;21.30;54.00
76293;DHT22;67256;51.154;4.164;2023-07-16T06:49:56;21.30;54.40
76293;DHT22;67256;51.154;4.164;2023-07-16T06:52:23;21.30;54.40
76293;DHT22;67256;51.154;4.164;2023-07-16T06:54:53;21.40;54.20
76293;DHT22;67256;51.154;4.164;2023-07-16T06:57:19;21.30;54.70
76293;DHT22;67256;51.154;4.164;2023-07-16T06:59:45;21.40;54.50
76293;DHT22;67256;51.154;4.164;2023-07-16T07:02:11;21.40;54.30
76293;DHT22;67256;51.154;4.164;2023-07-16T07:04:37;21.50;54.40
76293;DHT22;67256;51.154;4.164;2023-07-16T07:07:04;21.60;54.20
76293;DHT22;67256;51.154;4.164;2023-07-16T07:09:29;21.50;54.30
76293;DHT22;67256;51.154;4.164;2023-07-16T07:11:55;21.60;55.40
76293;DHT22;67256;51.154;4.164;2023-07-16T07:14:21;21.60;54.70
76293;DHT22;67256;51.154;4.164;2023-07-16T07:16:47;21.40;55.20
76293;DHT22;67256;51.154;4.164;2023-07-16T07:19:13;21.50;54.90
76293;DHT22;67256;51.154;4.164;2023-07-16T07:21:38;21.40;54.90
76293;DHT22;67256;51.154;4.164;2023-07-16T07:24:05;21.20;56.00
76293;DHT22;67256;51.154;4.164;2023-07-16T07:26:31;21.30;56.00
76293;DHT22;67256;51.154;4.164;2023-07-16T07:28:56;21.40;55.80
76293;DHT22;67256;51.154;4.164;2023-07-16T07:31:22;21.30;55.70
76293;DHT22;67256;51.154;4.164;2023-07-16T07:33:48;21.30;56.00
76293;DHT22;67256;51.154;4.164;2023-07-16T07:36:13;21.30;56.50
76293;DHT22;67256;51.154;4.164;2023-07-16T07:38:39;21.50;56.50
76293;DHT22;67256;51.154;4.164;2023-07-16T07:41:05;21.50;55.90
76293;DHT22;67256;51.154;4.164;2023-07-16T07:43:31;21.50;55.40
76293;DHT22;67256;51.154;4.164;2023-07-16T07:45:57;21.60;55.50
76293;DHT22;67256;51.154;4.164;2023-07-16T07:48:22;21.50;55.20
76293;DHT22;67256;51.154;4.164;2023-07-16T07:50:48;21.50;55.20
76293;DHT22;67256;51.154;4.164;2023-07-16T07:53:15;21.50;55.40
76293;DHT22;67256;51.154;4.164;2023-07-16T07:55:43;21.40;55.70
76293;DHT22;67256;51.154;4.164;2023-07-16T07:58:09;21.60;55.90
76293;DHT22;67256;51.154;4.164;2023-07-16T08:00:34;21.70;55.80
76293;DHT22;67256;51.154;4.164;2023-07-16T08:03:00;21.80;55.40
76293;DHT22;67256;51.154;4.164;2023-07-16T08:05:27;22.00;55.30
76293;DHT22;67256;51.154;4.164;2023-07-16T08:07:52;22.00;54.60
76293;DHT22;67256;51.154;4.164;2023-07-16T08:10:19;22.20;54.50
76293;DHT22;67256;51.154;4.164;2023-07-16T08:12:45;22.30;54.20
76293;DHT22;67256;51.154;4.164;2023-07-16T08:15:11;22.40;54.10
76293;DHT22;67256;51.154;4.164;2023-07-16T08:17:40;22.30;53.80
76293;DHT22;67256;51.154;4.164;2023-07-16T08:20:07;22.40;53.80
76293;DHT22;67256;51.154;4.164;2023-07-16T08:22:33;22.50;53.80
76293;DHT22;67256;51.154;4.164;2023-07-16T08:24:58;22.60;53.00
76293;DHT22;67256;51.154;4.164;2023-07-16T08:27:24;22.60;53.10
76293;DHT22;67256;51.154;4.164;2023-07-16T08:29:49;22.70;53.70
76293;DHT22;67256;51.154;4.164;2023-07-16T08:32:15;22.80;53.50
76293;DHT22;67256;51.154;4.164;2023-07-16T08:34:41;22.90;53.10
76293;DHT22;67256;51.154;4.164;2023-07-16T08:37:07;23.00;52.20
76293;DHT22;67256;51.154;4.164;2023-07-16T08:39:33;22.90;52.20
76293;DHT22;67256;51.154;4.164;2023-07-16T08:41:59;23.00;51.80
76293;DHT22;67256;51.154;4.164;2023-07-16T08:44:25;23.10;52.00
76293;DHT22;67256;51.154;4.164;2023-07-16T08:46:52;23.20;52.10
76293;DHT22;67256;51.154;4.164;2023-07-16T08:49:18;23.30;51.80
76293;DHT22;67256;51.154;4.164;2023-07-16T08:51:48;23.20;52.10
76293;DHT22;67256;51.154;4.164;2023-07-16T08:54:14;23.20;52.10
76293;DHT22;67256;51.154;4.164;2023-07-16T08:56:45;23.10;52.20
76293;DHT22;67256;51.154;4.164;2023-07-16T08:59:14;23.20;52.50
76293;DHT22;67256;51.154;4.164;2023-07-16T09:01:40;23.20;51.30
76293;DHT22;67256;51.154;4.164;2023-07-16T09:04:06;23.00;52.40
76293;DHT22;67256;51.154;4.164;2023-07-16T09:06:32;22.90;52.80
76293;DHT22;67256;51.154;4.164;2023-07-16T09:08:58;22.80;52.70
76293;DHT22;67256;51.154;4.164;2023-07-16T09:11:24;22.80;52.60
76293;DHT22;67256;51.154;4.164;2023-07-16T09:13:50;22.80;52.50
76293;DHT22;67256;51.154;4.164;2023-07-16T09:16:18;22.80;53.00
76293;DHT22;67256;51.154;4.164;2023-07-16T09:18:44;22.80;52.00
76293;DHT22;67256;51.154;4.164;2023-07-16T09:21:11;22.70;52.60
76293;DHT22;67256;51.154;4.164;2023-07-16T09:23:37;22.80;52.50
76293;DHT22;67256;51.154;4.164;2023-07-16T09:26:03;22.80;52.20
76293;DHT22;67256;51.154;4.164;2023-07-16T09:28:31;22.70;52.10
76293;DHT22;67256;51.154;4.164;2023-07-16T09:31:03;22.80;52.40
76293;DHT22;67256;51.154;4.164;2023-07-16T09:33:31;22.90;52.20
76293;DHT22;67256;51.154;4.164;2023-07-16T09:35:57;22.90;52.20
76293;DHT22;67256;51.154;4.164;2023-07-16T09:38:23;22.90;52.60
76293;DHT22;67256;51.154;4.164;2023-07-16T09:40:55;22.80;52.80
76293;DHT22;67256;51.154;4.164;2023-07-16T09:43:21;22.70;53.00
76293;DHT22;67256;51.154;4.164;2023-07-16T09:45:47;22.60;53.00
76293;DHT22;67256;51.154;4.164;2023-07-16T09:48:13;22.60;53.30
76293;DHT22;67256;51.154;4.164;2023-07-16T09:50:44;22.50;53.70
76293;DHT22;67256;51.154;4.164;2023-07-16T09:53:13;22.40;53.80
76293;DHT22;67256;51.154;4.164;2023-07-16T09:55:39;22.40;53.80
76293;DHT22;67256;51.154;4.164;2023-07-16T09:58:10;22.30;54.30
76293;DHT22;67256;51.154;4.164;2023-07-16T10:00:37;22.40;54.20
76293;DHT22;67256;51.154;4.164;2023-07-16T10:03:07;22.20;54.40
76293;DHT22;67256;51.154;4.164;2023-07-16T10:05:36;22.10;55.20
76293;DHT22;67256;51.154;4.164;2023-07-16T10:08:14;21.90;55.90
76293;DHT22;67256;51.154;4.164;2023-07-16T10:10:49;21.80;57.00
76293;DHT22;67256;51.154;4.164;2023-07-16T10:13:22;21.70;58.90
76293;DHT22;67256;51.154;4.164;2023-07-16T10:18:31;21.60;60.30
76293;DHT22;67256;51.154;4.164;2023-07-16T10:21:06;21.70;60.30
76293;DHT22;67256;51.154;4.164;2023-07-16T10:23:43;21.40;61.50
76293;DHT22;67256;51.154;4.164;2023-07-16T10:26:12;21.50;62.80
76293;DHT22;67256;51.154;4.164;2023-07-16T10:28:38;21.60;62.10
76293;DHT22;67256;51.154;4.164;2023-07-16T10:31:05;21.70;60.80
76293;DHT22;67256;51.154;4.164;2023-07-16T10:33:33;21.90;60.60
76293;DHT22;67256;51.154;4.164;2023-07-16T10:35:59;22.20;58.80
76293;DHT22;67256;51.154;4.164;2023-07-16T10:38:25;22.30;58.50
76293;DHT22;67256;51.154;4.164;2023-07-16T10:40:51;22.50;57.50
76293;DHT22;67256;51.154;4.164;2023-07-16T10:43:17;22.80;56.90
76293;DHT22;67256;51.154;4.164;2023-07-16T10:45:43;22.90;56.30
76293;DHT22;67256;51.154;4.164;2023-07-16T10:48:12;23.10;56.20
76293;DHT22;67256;51.154;4.164;2023-07-16T10:50:38;23.30;56.10
76293;DHT22;67256;51.154;4.164;2023-07-16T10:53:04;23.30;55.90
76293;DHT22;67256;51.154;4.164;2023-07-16T10:55:30;23.10;56.40
76293;DHT22;67256;51.154;4.164;2023-07-16T10:57:57;23.10;56.30
76293;DHT22;67256;51.154;4.164;2023-07-16T11:00:23;23.20;55.70
76293;DHT22;67256;51.154;4.164;2023-07-16T11:02:50;23.30;55.30
76293;DHT22;67256;51.154;4.164;2023-07-16T11:05:17;23.30;55.70
76293;DHT22;67256;51.154;4.164;2023-07-16T11:07:45;23.30;55.70
76293;DHT22;67256;51.154;4.164;2023-07-16T11:10:11;23.20;55.60
76293;DHT22;67256;51.154;4.164;2023-07-16T11:12:36;23.20;56.20
76293;DHT22;67256;51.154;4.164;2023-07-16T11:15:03;23.20;56.00
76293;DHT22;67256;51.154;4.164;2023-07-16T11:17:29;23.40;55.60
76293;DHT22;67256;51.154;4.164;2023-07-16T11:19:55;23.40;54.40
76293;DHT22;67256;51.154;4.164;2023-07-16T11:22:26;23.40;53.90
76293;DHT22;67256;51.154;4.164;2023-07-16T11:24:52;23.40;53.20
76293;DHT22;67256;51.154;4.164;2023-07-16T11:27:27;23.20;51.80
76293;DHT22;67256;51.154;4.164;2023-07-16T11:29:58;23.20;52.60
76293;DHT22;67256;51.154;4.164;2023-07-16T11:32:33;23.10;52.70
76293;DHT22;67256;51.154;4.164;2023-07-16T11:35:04;22.90;52.30
76293;DHT22;67256;51.154;4.164;2023-07-16T11:37:31;22.90;52.90
76293;DHT22;67256;51.154;4.164;2023-07-16T11:42:29;23.00;53.50
76293;DHT22;67256;51.154;4.164;2023-07-16T11:44:56;23.10;53.10
76293;DHT22;67256;51.154;4.164;2023-07-16T11:47:22;23.30;52.50
76293;DHT22;67256;51.154;4.164;2023-07-16T11:49:48;23.10;51.40
76293;DHT22;67256;51.154;4.164;2023-07-16T11:52:14;23.10;50.90
76293;DHT22;67256;51.154;4.164;2023-07-16T11:54:41;23.20;51.20
76293;DHT22;67256;51.154;4.164;2023-07-16T11:57:06;23.40;51.00
76293;DHT22;67256;51.154;4.164;2023-07-16T11:59:32;23.60;50.80
76293;DHT22;67256;51.154;4.164;2023-07-16T12:01:58;23.70;50.40
76293;DHT22;67256;51.154;4.164;2023-07-16T12:04:25;23.90;50.10
76293;DHT22;67256;51.154;4.164;2023-07-16T12:06:50;23.90;49.90
76293;DHT22;67256;51.154;4.164;2023-07-16T12:09:16;23.90;50.00
76293;DHT22;67256;51.154;4.164;2023-07-16T12:11:42;24.00;50.80
76293;DHT22;67256;51.154;4.164;2023-07-16T12:14:07;24.10;50.00
76293;DHT22;67256;51.154;4.164;2023-07-16T12:16:34;24.00;49.40
76293;DHT22;67256;51.154;4.164;2023-07-16T12:18:59;23.80;50.00
76293;DHT22;67256;51.154;4.164;2023-07-16T12:21:26;23.80;50.30
76293;DHT22;67256;51.154;4.164;2023-07-16T12:23:51;23.80;50.80
76293;DHT22;67256;51.154;4.164;2023-07-16T12:26:17;23.90;51.30
76293;DHT22;67256;51.154;4.164;2023-07-16T12:28:43;24.10;51.20
76293;DHT22;67256;51.154;4.164;2023-07-16T12:31:09;24.20;51.10
76293;DHT22;67256;51.154;4.164;2023-07-16T12:33:35;24.30;50.80
76293;DHT22;67256;51.154;4.164;2023-07-16T12:36:00;24.40;50.50
76293;DHT22;67256;51.154;4.164;2023-07-16T12:38:26;24.50;49.60
76293;DHT22;67256;51.154;4.164;2023-07-16T12:40:52;24.30;48.80
76293;DHT22;67256;51.154;4.164;2023-07-16T12:43:18;24.20;49.20
76293;DHT22;67256;51.154;4.164;2023-07-16T12:45:43;24.20;49.50
76293;DHT22;67256;51.154;4.164;2023-07-16T12:48:09;24.20;49.90
76293;DHT22;67256;51.154;4.164;2023-07-16T12:50:34;24.10;49.30
76293;DHT22;67256;51.154;4.164;2023-07-16T12:53:00;24.10;49.70
76293;DHT22;67256;51.154;4.164;2023-07-16T12:55:26;24.30;49.30
76293;DHT22;67256;51.154;4.164;2023-07-16T12:57:51;24.40;48.20
76293;DHT22;67256;51.154;4.164;2023-07-16T13:00:17;24.50;47.40
76293;DHT22;67256;51.154;4.164;2023-07-16T13:02:44;24.30;47.50
76293;DHT22;67256;51.154;4.164;2023-07-16T13:05:09;24.20;47.20
76293;DHT22;67256;51.154;4.164;2023-07-16T13:07:35;24.10;48.00
76293;DHT22;67256;51.154;4.164;2023-07-16T13:10:00;24.00;48.10
76293;DHT22;67256;51.154;4.164;2023-07-16T13:12:26;23.80;48.50
76293;DHT22;67256;51.154;4.164;2023-07-16T13:14:52;23.80;48.50
76293;DHT22;67256;51.154;4.164;2023-07-16T13:17:18;23.80;47.80
76293;DHT22;67256;51.154;4.164;2023-07-16T13:19:45;24.00;47.50
76293;DHT22;67256;51.154;4.164;2023-07-16T13:22:11;24.00;46.70
76293;DHT22;67256;51.154;4.164;2023-07-16T13:24:37;23.90;46.70
76293;DHT22;67256;51.154;4.164;2023-07-16T13:27:03;24.10;47.20
76293;DHT22;67256;51.154;4.164;2023-07-16T13:29:28;24.10;47.70
76293;DHT22;67256;51.154;4.164;2023-07-16T13:31:54;24.10;47.90
76293;DHT22;67256;51.154;4.164;2023-07-16T13:34:20;24.00;47.80
76293;DHT22;67256;51.154;4.164;2023-07-16T13:36:45;24.00;48.00
76293;DHT22;67256;51.154;4.164;2023-07-16T13:39:11;24.00;47.80
76293;DHT22;67256;51.154;4.164;2023-07-16T13:41:39;24.10;48.20
76293;DHT22;67256;51.154;4.164;2023-07-16T13:44:05;24.10;48.30
76293;DHT22;67256;51.154;4.164;2023-07-16T13:46:31;24.30;47.40
76293;DHT22;67256;51.154;4.164;2023-07-16T13:48:57;24.30;47.40
76293;DHT22;67256;51.154;4.164;2023-07-16T13:51:23;24.20;47.50
76293;DHT22;67256;51.154;4.164;2023-07-16T13:53:49;24.10;48.70
76293;DHT22;67256;51.154;4.164;2023-07-16T13:56:15;24.10;48.70
76293;DHT22;67256;51.154;4.164;2023-07-16T13:58:40;24.10;48.90
76293;DHT22;67256;51.154;4.164;2023-07-16T14:01:06;24.20;47.90
76293;DHT22;67256;51.154;4.164;2023-07-16T14:03:32;24.40;47.20
76293;DHT22;67256;51.154;4.164;2023-07-16T14:05:57;24.60;47.00
76293;DHT22;67256;51.154;4.164;2023-07-16T14:08:23;24.80;46.40
76293;DHT22;67256;51.154;4.164;2023-07-16T14:10:49;24.80;46.70
76293;DHT22;67256;51.154;4.164;2023-07-16T14:13:15;24.90;46.40
76293;DHT22;67256;51.154;4.164;2023-07-16T14:15:42;24.90;46.70
76293;DHT22;67256;51.154;4.164;2023-07-16T14:18:07;24.90;46.60
76293;DHT22;67256;51.154;4.164;2023-07-16T14:20:33;24.90;46.50
76293;DHT22;67256;51.154;4.164;2023-07-16T14:22:59;24.90;46.30
76293;DHT22;67256;51.154;4.164;2023-07-16T14:25:25;25.00;45.90
76293;DHT22;67256;51.154;4.164;2023-07-16T14:27:51;25.10;45.50
76293;DHT22;67256;51.154;4.164;2023-07-16T14:30:16;25.10;45.80
76293;DHT22;67256;51.154;4.164;2023-07-16T14:32:42;25.20;45.80
76293;DHT22;67256;51.154;4.164;2023-07-16T14:35:09;25.30;45.40
76293;DHT22;67256;51.154;4.164;2023-07-16T14:37:34;25.40;45.50
76293;DHT22;67256;51.154;4.164;2023-07-16T14:40:00;25.50;44.70
76293;DHT22;67256;51.154;4.164;2023-07-16T14:42:26;25.50;45.30
76293;DHT22;67256;51.154;4.164;2023-07-16T14:44:51;25.60;44.80
76293;DHT22;67256;51.154;4.164;2023-07-16T14:47:17;25.60;44.20
76293;DHT22;67256;51.154;4.164;2023-07-16T14:49:43;25.60;44.40
76293;DHT22;67256;51.154;4.164;2023-07-16T14:52:09;25.60;43.90
76293;DHT22;67256;51.154;4.164;2023-07-16T14:54:34;25.60;43.50
76293;DHT22;67256;51.154;4.164;2023-07-16T14:57:01;25.60;44.20
76293;DHT22;67256;51.154;4.164;2023-07-16T14:59:28;25.40;44.60
76293;DHT22;67256;51.154;4.164;2023-07-16T15:01:54;25.50;44.20
76293;DHT22;67256;51.154;4.164;2023-07-16T15:04:20;25.40;44.80
76293;DHT22;67256;51.154;4.164;2023-07-16T15:06:46;25.30;45.00
76293;DHT22;67256;51.154;4.164;2023-07-16T15:09:12;25.30;45.10
76293;DHT22;67256;51.154;4.164;2023-07-16T15:11:39;25.30;44.70
76293;DHT22;67256;51.154;4.164;2023-07-16T15:14:05;25.30;44.80
76293;DHT22;67256;51.154;4.164;2023-07-16T15:16:31;25.30;45.60
76293;DHT22;67256;51.154;4.164;2023-07-16T15:18:57;25.30;45.30
76293;DHT22;67256;51.154;4.164;2023-07-16T15:21:23;25.20;44.10
76293;DHT22;67256;51.154;4.164;2023-07-16T15:23:48;25.00;44.60
76293;DHT22;67256;51.154;4.164;2023-07-16T15:26:14;24.90;44.80
76293;DHT22;67256;51.154;4.164;2023-07-16T15:28:40;24.90;45.40
76293;DHT22;67256;51.154;4.164;2023-07-16T15:31:08;24.90;46.10
76293;DHT22;67256;51.154;4.164;2023-07-16T15:33:34;24.90;45.40
76293;DHT22;67256;51.154;4.164;2023-07-16T15:36:00;24.70;45.50
76293;DHT22;67256;51.154;4.164;2023-07-16T15:38:26;24.50;46.00
76293;DHT22;67256;51.154;4.164;2023-07-16T15:40:55;24.40;46.00